»·PEaware :: N55NT KSBA-KCRQ

N55NT :: KSBA-KCRQ

FLIGHT INFORMATION

Flight Status: Arrived
Operator: Privately registered:
United States
More flights under this callsign
Pilot: Craig H. (6968)
Aircraft: SOCATA TBM-900
(TBM9)
More flights by this aircraft type
Origin: KSBA Santa Barbara Mun
United States
Destination: KCRQ McClellan-Palomar
United States
More flights between these airports :: More routes between these airports
Route: +KWANG VTU V208 SXC V208 OCN
File this flight plan on PilotEdge
Remarks: SBAP26
Altitude:
(Current/Filed)
9,000ft
Speed:
(Current/Filed)
210kts
Departed: 08-Nov-19 06:23 PM
Arrived: 08-Nov-19 07:16 PM
Distance/Time
Traveled:
150nm/0:53
Distance/Time
To Go:
Arrived

Flight Plot

Page will automatically refresh every two minutes.


Map Options




Map Legend


Flown Route
Filed Route
Departure Airport
Arrival Airport
Navaid (VOR, NDB)
Fix

Horizontal Profiles

Position Reports

Time Latitude Longitude Heading Altitude Ground
Speed
08-Nov-19 17:56 34.423070 -119.836180 152 10ft 0kts
08-Nov-19 17:57 34.423070 -119.836180 152 10ft 0kts
08-Nov-19 17:58 34.423070 -119.836180 152 10ft 0kts
08-Nov-19 17:59 34.423070 -119.836180 152 10ft 0kts
08-Nov-19 18:00 34.423070 -119.836180 152 10ft 0kts
08-Nov-19 18:01 34.423070 -119.836180 152 10ft 0kts
08-Nov-19 18:02 34.423070 -119.836180 152 10ft 0kts
08-Nov-19 18:03 34.423070 -119.836180 152 10ft 0kts
08-Nov-19 18:04 34.423070 -119.836180 152 10ft 0kts
08-Nov-19 18:05 34.423070 -119.836180 152 10ft 0kts
08-Nov-19 18:06 34.423070 -119.836180 152 10ft 0kts
08-Nov-19 18:07 34.423070 -119.836180 152 10ft 0kts
08-Nov-19 18:08 34.422926 -119.836344 263 10ft 0kts
08-Nov-19 18:09 34.424257 -119.837598 346 11ft 14kts
08-Nov-19 18:10 34.426722 -119.836783 88 10ft 11kts
08-Nov-19 18:11 34.426983 -119.834615 0 10ft 0kts
08-Nov-19 18:12 34.426983 -119.834615 0 10ft 0kts
08-Nov-19 18:13 34.426983 -119.834615 0 10ft 0kts
08-Nov-19 18:14 34.426983 -119.834615 0 10ft 0kts
08-Nov-19 18:15 34.426983 -119.834615 0 10ft 0kts
08-Nov-19 18:16 34.426983 -119.834615 0 10ft 0kts
08-Nov-19 18:17 34.426983 -119.834615 0 10ft 0kts
08-Nov-19 18:18 34.426983 -119.834615 0 10ft 0kts
08-Nov-19 18:19 34.426983 -119.834615 0 10ft 0kts
08-Nov-19 18:20 34.427026 -119.834615 0 10ft 0kts
08-Nov-19 18:21 34.427908 -119.835129 266 10ft 0kts
08-Nov-19 18:22 34.426589 -119.868740 267 1207ft 152kts
08-Nov-19 18:23 34.422294 -119.922174 239 3059ft 196kts
08-Nov-19 18:24 34.378852 -119.915042 151 5901ft 165kts
08-Nov-19 18:25 34.337564 -119.892211 152 8038ft 191kts
08-Nov-19 18:26 34.284984 -119.862873 152 9034ft 230kts
08-Nov-19 18:27 34.237889 -119.806807 123 9014ft 253kts
08-Nov-19 18:28 34.195581 -119.737064 124 9005ft 258kts
08-Nov-19 18:29 34.152690 -119.666992 124 9007ft 260kts
08-Nov-19 18:30 34.109458 -119.596535 124 9006ft 261kts
08-Nov-19 18:31 34.066310 -119.526337 124 9008ft 260kts
08-Nov-19 18:32 34.022923 -119.455880 124 9007ft 261kts
08-Nov-19 18:33 33.979533 -119.385577 124 9006ft 260kts
08-Nov-19 18:34 33.937789 -119.318076 124 9004ft 248kts
08-Nov-19 18:35 33.897261 -119.252624 124 9017ft 247kts
08-Nov-19 18:36 33.855492 -119.185283 124 9012ft 252kts
08-Nov-19 18:37 33.813310 -119.117453 124 9012ft 253kts
08-Nov-19 18:38 33.771026 -119.049598 124 9014ft 253kts
08-Nov-19 18:39 33.728752 -118.981836 125 9014ft 253kts
08-Nov-19 18:40 33.686413 -118.914115 125 9016ft 253kts
08-Nov-19 18:41 33.643969 -118.846345 125 8963ft 255kts
08-Nov-19 18:42 33.601454 -118.778581 125 8965ft 254kts
08-Nov-19 18:43 33.558815 -118.710784 125 8968ft 254kts
08-Nov-19 18:44 33.516031 -118.642850 125 8976ft 257kts
08-Nov-19 18:45 33.472755 -118.574272 125 8985ft 258kts
08-Nov-19 18:46 33.429503 -118.505861 125 8993ft 258kts
08-Nov-19 18:47 33.386107 -118.437343 125 8999ft 258kts
08-Nov-19 18:48 33.366841 -118.357219 97 8998ft 255kts
08-Nov-19 18:49 33.355874 -118.272943 98 8990ft 256kts
08-Nov-19 18:50 33.344786 -118.188596 97 8982ft 256kts
08-Nov-19 18:51 33.333651 -118.104355 98 9044ft 255kts
08-Nov-19 18:52 33.322473 -118.020260 98 9035ft 256kts
08-Nov-19 18:53 33.311218 -117.936047 97 9007ft 257kts
08-Nov-19 18:54 33.299673 -117.849988 97 8273ft 276kts
08-Nov-19 18:55 33.288323 -117.765965 97 6997ft 233kts
08-Nov-19 18:56 33.276701 -117.687019 98 7006ft 246kts
08-Nov-19 18:57 33.264504 -117.606359 98 7009ft 246kts
08-Nov-19 18:59 33.253797 -117.525507 96 7009ft 246kts
08-Nov-19 19:00 33.243840 -117.443908 96 6763ft 253kts
08-Nov-19 19:01 33.234683 -117.366932 96 5809ft 221kts
08-Nov-19 19:02 33.226180 -117.294630 96 5317ft 227kts
08-Nov-19 19:03 33.225842 -117.218914 62 5321ft 233kts
08-Nov-19 19:04 33.256480 -117.148576 61 5333ft 242kts
08-Nov-19 19:05 33.286080 -117.080421 61 5320ft 216kts
08-Nov-19 19:06 33.305024 -117.014476 90 5322ft 203kts
08-Nov-19 19:07 33.280701 -116.955375 138 5338ft 208kts
08-Nov-19 19:08 33.225808 -116.938698 190 5341ft 215kts
08-Nov-19 19:09 33.180741 -116.977062 241 4732ft 191kts
08-Nov-19 19:10 33.167732 -117.034854 259 4244ft 193kts
08-Nov-19 19:11 33.157101 -117.100438 260 3377ft 184kts
08-Nov-19 19:12 33.148721 -117.152959 260 2523ft 153kts
08-Nov-19 19:13 33.140968 -117.201151 260 1618ft 135kts
08-Nov-19 19:14 33.134919 -117.238901 260 1034ft 93kts
08-Nov-19 19:15 33.130017 -117.269359 260 425ft 92kts
08-Nov-19 19:16 33.127053 -117.282440 83 334ft 9kts
08-Nov-19 19:16 33.127627 -117.278754 80 334ft 16kts
08-Nov-19 19:18 33.126996 -117.278028 262 334ft 0kts

Navigation Log

Ident Type
Flight plan parsing failed, navigation log unavailable